sensor_id;sensor_type;location;lat;lon;timestamp;pressure;altitude;pressure_sealevel;temperature;humidity
12781;BME280;6454;43.304;24.344;2022-07-06T00:02:04;100173.72;;;22.95;85.03
12781;BME280;6454;43.304;24.344;2022-07-06T00:04:31;100171.38;;;22.97;85.28
12781;BME280;6454;43.304;24.344;2022-07-06T00:06:57;100157.25;;;23.02;84.67
12781;BME280;6454;43.304;24.344;2022-07-06T00:09:24;100163.59;;;23.03;84.43
12781;BME280;6454;43.304;24.344;2022-07-06T00:11:51;100160.56;;;23.12;85.01
12781;BME280;6454;43.304;24.344;2022-07-06T00:14:18;100138.41;;;23.12;86.16
12781;BME280;6454;43.304;24.344;2022-07-06T00:16:45;100140.03;;;23.13;86.35
12781;BME280;6454;43.304;24.344;2022-07-06T00:19:13;100131.59;;;23.05;86.44
12781;BME280;6454;43.304;24.344;2022-07-06T00:21:40;100128.03;;;23.05;86.11
12781;BME280;6454;43.304;24.344;2022-07-06T00:24:07;100115.38;;;23.04;85.94
12781;BME280;6454;43.304;24.344;2022-07-06T00:26:34;100109.78;;;23.00;86.42
12781;BME280;6454;43.304;24.344;2022-07-06T00:29:00;100102.75;;;23.06;86.91
12781;BME280;6454;43.304;24.344;2022-07-06T00:31:27;100103.25;;;23.12;87.13
12781;BME280;6454;43.304;24.344;2022-07-06T00:33:54;100101.28;;;23.13;87.66
12781;BME280;6454;43.304;24.344;2022-07-06T00:36:22;100092.25;;;23.16;87.68
12781;BME280;6454;43.304;24.344;2022-07-06T00:38:49;100089.09;;;23.17;87.45
12781;BME280;6454;43.304;24.344;2022-07-06T00:41:16;100076.63;;;23.04;87.28
12781;BME280;6454;43.304;24.344;2022-07-06T00:43:47;100092.59;;;23.14;88.10
12781;BME280;6454;43.304;24.344;2022-07-06T00:46:14;100087.13;;;23.18;87.25
12781;BME280;6454;43.304;24.344;2022-07-06T00:48:41;100087.97;;;23.22;86.74
12781;BME280;6454;43.304;24.344;2022-07-06T00:51:08;100096.69;;;23.24;86.54
12781;BME280;6454;43.304;24.344;2022-07-06T00:53:37;100098.78;;;23.30;86.83
12781;BME280;6454;43.304;24.344;2022-07-06T00:56:04;100098.72;;;23.27;87.72
12781;BME280;6454;43.304;24.344;2022-07-06T00:58:31;100102.69;;;23.26;88.20
12781;BME280;6454;43.304;24.344;2022-07-06T01:00:58;100098.31;;;23.25;87.84
12781;BME280;6454;43.304;24.344;2022-07-06T01:03:24;100101.06;;;23.25;88.05
12781;BME280;6454;43.304;24.344;2022-07-06T01:05:51;100102.69;;;23.26;86.88
12781;BME280;6454;43.304;24.344;2022-07-06T01:08:18;100106.69;;;23.28;86.13
12781;BME280;6454;43.304;24.344;2022-07-06T01:10:47;100108.22;;;23.26;85.68
12781;BME280;6454;43.304;24.344;2022-07-06T01:13:14;100108.34;;;23.10;85.73
12781;BME280;6454;43.304;24.344;2022-07-06T01:15:41;100105.53;;;23.06;86.54
12781;BME280;6454;43.304;24.344;2022-07-06T01:18:10;100105.22;;;23.12;86.56
12781;BME280;6454;43.304;24.344;2022-07-06T01:20:39;100114.38;;;23.16;86.95
12781;BME280;6454;43.304;24.344;2022-07-06T01:23:06;100111.53;;;23.12;87.50
12781;BME280;6454;43.304;24.344;2022-07-06T01:25:32;100104.88;;;23.17;87.43
12781;BME280;6454;43.304;24.344;2022-07-06T01:27:59;100098.94;;;23.15;86.98
12781;BME280;6454;43.304;24.344;2022-07-06T01:30:26;100089.34;;;23.08;88.16
12781;BME280;6454;43.304;24.344;2022-07-06T01:32:53;100100.84;;;23.11;88.07
12781;BME280;6454;43.304;24.344;2022-07-06T01:35:20;100096.91;;;23.12;88.82
12781;BME280;6454;43.304;24.344;2022-07-06T01:37:48;100090.94;;;23.09;89.64
12781;BME280;6454;43.304;24.344;2022-07-06T01:40:15;100089.03;;;23.14;89.32
12781;BME280;6454;43.304;24.344;2022-07-06T01:42:42;100067.09;;;23.01;90.15
12781;BME280;6454;43.304;24.344;2022-07-06T01:45:10;100095.44;;;23.18;90.72
12781;BME280;6454;43.304;24.344;2022-07-06T01:47:37;100099.75;;;23.15;91.85
12781;BME280;6454;43.304;24.344;2022-07-06T01:50:06;100106.44;;;23.14;92.96
12781;BME280;6454;43.304;24.344;2022-07-06T01:52:33;100115.75;;;23.02;92.31
12781;BME280;6454;43.304;24.344;2022-07-06T01:55:02;100115.78;;;23.06;91.83
12781;BME280;6454;43.304;24.344;2022-07-06T01:57:29;100119.34;;;23.06;92.48
12781;BME280;6454;43.304;24.344;2022-07-06T01:59:56;100117.00;;;23.08;93.42
12781;BME280;6454;43.304;24.344;2022-07-06T02:02:22;100120.16;;;23.07;94.01
12781;BME280;6454;43.304;24.344;2022-07-06T02:04:49;100115.75;;;23.02;94.35
12781;BME280;6454;43.304;24.344;2022-07-06T02:07:16;100113.66;;;22.96;94.89
12781;BME280;6454;43.304;24.344;2022-07-06T02:09:43;100113.28;;;22.97;94.65
12781;BME280;6454;43.304;24.344;2022-07-06T02:12:11;100112.75;;;22.88;95.74
12781;BME280;6454;43.304;24.344;2022-07-06T02:14:38;100111.06;;;22.84;96.14
12781;BME280;6454;43.304;24.344;2022-07-06T02:17:05;100120.59;;;22.86;96.28
12781;BME280;6454;43.304;24.344;2022-07-06T02:19:32;100098.34;;;22.79;96.20
12781;BME280;6454;43.304;24.344;2022-07-06T02:21:58;100101.00;;;22.72;97.32
12781;BME280;6454;43.304;24.344;2022-07-06T02:24:25;100103.75;;;22.72;97.43
12781;BME280;6454;43.304;24.344;2022-07-06T02:26:52;100110.75;;;22.66;97.87
12781;BME280;6454;43.304;24.344;2022-07-06T02:29:20;100109.22;;;22.69;96.50
12781;BME280;6454;43.304;24.344;2022-07-06T02:31:47;100108.25;;;22.61;97.26
12781;BME280;6454;43.304;24.344;2022-07-06T02:34:14;100104.22;;;22.55;97.17
12781;BME280;6454;43.304;24.344;2022-07-06T02:36:41;100107.84;;;22.59;97.32
12781;BME280;6454;43.304;24.344;2022-07-06T02:39:08;100109.91;;;22.43;99.59
12781;BME280;6454;43.304;24.344;2022-07-06T02:41:34;100113.41;;;22.40;99.29
12781;BME280;6454;43.304;24.344;2022-07-06T02:44:01;100117.03;;;22.44;98.25
12781;BME280;6454;43.304;24.344;2022-07-06T02:46:30;100115.16;;;22.48;97.93
12781;BME280;6454;43.304;24.344;2022-07-06T02:48:57;100135.34;;;22.52;98.08
12781;BME280;6454;43.304;24.344;2022-07-06T02:51:23;100124.84;;;22.61;97.80
12781;BME280;6454;43.304;24.344;2022-07-06T02:53:50;100129.25;;;22.62;98.11
12781;BME280;6454;43.304;24.344;2022-07-06T02:56:17;100128.53;;;22.65;97.90
12781;BME280;6454;43.304;24.344;2022-07-06T02:58:44;100134.50;;;22.67;98.20
12781;BME280;6454;43.304;24.344;2022-07-06T03:01:11;100128.22;;;22.70;97.51
12781;BME280;6454;43.304;24.344;2022-07-06T03:03:39;100135.34;;;22.71;96.98
12781;BME280;6454;43.304;24.344;2022-07-06T03:06:06;100133.25;;;22.65;97.40
12781;BME280;6454;43.304;24.344;2022-07-06T03:08:33;100139.16;;;22.63;98.12
12781;BME280;6454;43.304;24.344;2022-07-06T03:11:00;100136.41;;;22.63;97.40
12781;BME280;6454;43.304;24.344;2022-07-06T03:13:27;100133.44;;;22.56;97.95
12781;BME280;6454;43.304;24.344;2022-07-06T03:15:54;100146.53;;;22.59;98.11
12781;BME280;6454;43.304;24.344;2022-07-06T03:18:21;100148.47;;;22.55;97.94
12781;BME280;6454;43.304;24.344;2022-07-06T03:20:50;100144.97;;;22.58;98.21
12781;BME280;6454;43.304;24.344;2022-07-06T03:23:16;100143.72;;;22.56;99.33
12781;BME280;6454;43.304;24.344;2022-07-06T03:25:43;100145.25;;;22.53;100.00
12781;BME280;6454;43.304;24.344;2022-07-06T03:28:10;100142.72;;;22.44;100.00
12781;BME280;6454;43.304;24.344;2022-07-06T03:30:37;100138.59;;;22.35;100.00
12781;BME280;6454;43.304;24.344;2022-07-06T03:33:04;100127.69;;;22.23;100.00
12781;BME280;6454;43.304;24.344;2022-07-06T03:35:31;100145.19;;;22.11;100.00
12781;BME280;6454;43.304;24.344;2022-07-06T03:37:59;100150.59;;;22.04;100.00
12781;BME280;6454;43.304;24.344;2022-07-06T03:40:28;100136.28;;;21.99;100.00
12781;BME280;6454;43.304;24.344;2022-07-06T03:42:54;100142.22;;;22.01;100.00
12781;BME280;6454;43.304;24.344;2022-07-06T03:45:21;100142.16;;;21.97;100.00
12781;BME280;6454;43.304;24.344;2022-07-06T03:47:48;100137.72;;;21.93;100.00
12781;BME280;6454;43.304;24.344;2022-07-06T03:50:15;100139.69;;;21.92;100.00
12781;BME280;6454;43.304;24.344;2022-07-06T03:52:42;100111.59;;;21.71;100.00
12781;BME280;6454;43.304;24.344;2022-07-06T03:55:11;100135.78;;;21.77;100.00
12781;BME280;6454;43.304;24.344;2022-07-06T03:57:38;100120.22;;;21.69;100.00
12781;BME280;6454;43.304;24.344;2022-07-06T04:00:07;100131.88;;;21.78;100.00
12781;BME280;6454;43.304;24.344;2022-07-06T04:02:34;100134.25;;;21.80;100.00
12781;BME280;6454;43.304;24.344;2022-07-06T04:05:01;100130.69;;;21.79;100.00
12781;BME280;6454;43.304;24.344;2022-07-06T04:07:28;100136.75;;;21.85;100.00
12781;BME280;6454;43.304;24.344;2022-07-06T04:09:55;100123.63;;;21.63;100.00
12781;BME280;6454;43.304;24.344;2022-07-06T04:12:23;100144.69;;;21.87;100.00
12781;BME280;6454;43.304;24.344;2022-07-06T04:14:50;100139.53;;;21.85;100.00
12781;BME280;6454;43.304;24.344;2022-07-06T04:17:17;100147.09;;;21.88;100.00
12781;BME280;6454;43.304;24.344;2022-07-06T04:20:01;100147.91;;;21.89;100.00
12781;BME280;6454;43.304;24.344;2022-07-06T04:22:28;100139.38;;;21.97;100.00
12781;BME280;6454;43.304;24.344;2022-07-06T04:24:54;100135.53;;;22.02;100.00
12781;BME280;6454;43.304;24.344;2022-07-06T04:27:23;100119.75;;;22.02;100.00
12781;BME280;6454;43.304;24.344;2022-07-06T04:29:49;100127.19;;;22.17;100.00
12781;BME280;6454;43.304;24.344;2022-07-06T04:32:16;100122.69;;;22.28;100.00
12781;BME280;6454;43.304;24.344;2022-07-06T04:34:43;100127.97;;;22.37;100.00
12781;BME280;6454;43.304;24.344;2022-07-06T04:37:10;100134.41;;;22.44;100.00
12781;BME280;6454;43.304;24.344;2022-07-06T04:39:37;100136.84;;;22.46;100.00
12781;BME280;6454;43.304;24.344;2022-07-06T04:42:04;100142.16;;;22.35;100.00
12781;BME280;6454;43.304;24.344;2022-07-06T04:44:32;100147.53;;;22.28;100.00
12781;BME280;6454;43.304;24.344;2022-07-06T04:46:59;100144.53;;;22.37;100.00
12781;BME280;6454;43.304;24.344;2022-07-06T04:49:25;100149.47;;;22.47;100.00
12781;BME280;6454;43.304;24.344;2022-07-06T04:51:52;100154.72;;;22.52;100.00
12781;BME280;6454;43.304;24.344;2022-07-06T04:54:19;100152.44;;;22.58;99.76
12781;BME280;6454;43.304;24.344;2022-07-06T04:56:46;100155.66;;;22.60;98.93
12781;BME280;6454;43.304;24.344;2022-07-06T04:59:13;100150.84;;;22.57;99.98
12781;BME280;6454;43.304;24.344;2022-07-06T05:01:41;100157.84;;;22.51;100.00
12781;BME280;6454;43.304;24.344;2022-07-06T05:04:09;100152.06;;;22.59;99.45
12781;BME280;6454;43.304;24.344;2022-07-06T05:06:36;100158.94;;;22.65;98.58
12781;BME280;6454;43.304;24.344;2022-07-06T05:09:03;100160.75;;;22.58;99.65
12781;BME280;6454;43.304;24.344;2022-07-06T05:11:30;100161.97;;;22.60;100.00
12781;BME280;6454;43.304;24.344;2022-07-06T05:13:57;100162.13;;;22.67;99.76
12781;BME280;6454;43.304;24.344;2022-07-06T05:16:24;100170.50;;;22.71;98.28
12781;BME280;6454;43.304;24.344;2022-07-06T05:18:52;100175.97;;;22.67;98.73
12781;BME280;6454;43.304;24.344;2022-07-06T05:21:19;100174.81;;;22.68;98.43
12781;BME280;6454;43.304;24.344;2022-07-06T05:23:45;100178.44;;;22.72;98.86
12781;BME280;6454;43.304;24.344;2022-07-06T05:26:12;100185.13;;;22.71;98.01
12781;BME280;6454;43.304;24.344;2022-07-06T05:28:39;100182.81;;;22.73;98.04
12781;BME280;6454;43.304;24.344;2022-07-06T05:31:06;100189.63;;;22.79;98.81
12781;BME280;6454;43.304;24.344;2022-07-06T05:33:33;100188.22;;;22.89;98.01
12781;BME280;6454;43.304;24.344;2022-07-06T05:36:01;100187.91;;;22.94;96.75
12781;BME280;6454;43.304;24.344;2022-07-06T05:38:28;100193.44;;;22.94;97.07
12781;BME280;6454;43.304;24.344;2022-07-06T05:40:55;100189.94;;;22.97;96.54
12781;BME280;6454;43.304;24.344;2022-07-06T05:43:22;100203.84;;;23.00;95.58
12781;BME280;6454;43.304;24.344;2022-07-06T05:45:49;100188.09;;;23.04;95.74
12781;BME280;6454;43.304;24.344;2022-07-06T05:48:16;100193.31;;;23.09;95.55
12781;BME280;6454;43.304;24.344;2022-07-06T05:51:02;100196.78;;;23.26;94.46
12781;BME280;6454;43.304;24.344;2022-07-06T05:53:29;100187.72;;;23.29;93.63
12781;BME280;6454;43.304;24.344;2022-07-06T05:55:55;100198.06;;;23.32;93.90
12781;BME280;6454;43.304;24.344;2022-07-06T05:58:22;100192.66;;;23.39;93.42
12781;BME280;6454;43.304;24.344;2022-07-06T06:00:50;100212.03;;;23.39;91.71
12781;BME280;6454;43.304;24.344;2022-07-06T06:03:17;100202.25;;;23.45;92.20
12781;BME280;6454;43.304;24.344;2022-07-06T06:05:44;100197.88;;;23.44;91.83
12781;BME280;6454;43.304;24.344;2022-07-06T06:08:12;100201.47;;;23.44;91.53
12781;BME280;6454;43.304;24.344;2022-07-06T06:10:39;100198.69;;;23.44;91.26
12781;BME280;6454;43.304;24.344;2022-07-06T06:13:06;100205.44;;;23.47;90.61
12781;BME280;6454;43.304;24.344;2022-07-06T06:15:33;100212.09;;;23.42;91.42
12781;BME280;6454;43.304;24.344;2022-07-06T06:18:00;100208.53;;;23.42;90.70
12781;BME280;6454;43.304;24.344;2022-07-06T06:20:27;100220.44;;;23.46;91.42
12781;BME280;6454;43.304;24.344;2022-07-06T06:22:55;100208.72;;;23.52;91.16
12781;BME280;6454;43.304;24.344;2022-07-06T06:25:29;100207.00;;;23.44;92.12
12781;BME280;6454;43.304;24.344;2022-07-06T06:27:56;100163.13;;;23.24;92.62
12781;BME280;6454;43.304;24.344;2022-07-06T06:30:23;100216.06;;;23.67;91.96
12781;BME280;6454;43.304;24.344;2022-07-06T06:32:50;100216.13;;;23.71;91.44
12781;BME280;6454;43.304;24.344;2022-07-06T06:35:17;100220.50;;;23.72;90.97
12781;BME280;6454;43.304;24.344;2022-07-06T06:37:44;100190.75;;;23.69;89.75
12781;BME280;6454;43.304;24.344;2022-07-06T06:40:11;100215.16;;;23.86;89.36
12781;BME280;6454;43.304;24.344;2022-07-06T06:42:39;100227.53;;;23.92;88.27
12781;BME280;6454;43.304;24.344;2022-07-06T06:45:07;100223.53;;;23.90;88.41
12781;BME280;6454;43.304;24.344;2022-07-06T06:47:34;100220.38;;;23.91;88.59
12781;BME280;6454;43.304;24.344;2022-07-06T06:50:01;100221.66;;;23.97;87.94
12781;BME280;6454;43.304;24.344;2022-07-06T06:52:28;100222.16;;;24.06;86.59
12781;BME280;6454;43.304;24.344;2022-07-06T06:54:54;100213.03;;;24.02;86.26
12781;BME280;6454;43.304;24.344;2022-07-06T06:57:21;100211.84;;;24.03;86.01
12781;BME280;6454;43.304;24.344;2022-07-06T06:59:50;100209.88;;;24.04;87.15
12781;BME280;6454;43.304;24.344;2022-07-06T07:02:16;100209.13;;;24.07;86.74
12781;BME280;6454;43.304;24.344;2022-07-06T07:04:44;100198.47;;;24.09;86.36
12781;BME280;6454;43.304;24.344;2022-07-06T07:07:11;100199.75;;;24.15;85.59
12781;BME280;6454;43.304;24.344;2022-07-06T07:09:37;100205.78;;;24.20;85.70
12781;BME280;6454;43.304;24.344;2022-07-06T07:12:05;100192.47;;;24.33;85.47
12781;BME280;6454;43.304;24.344;2022-07-06T07:14:31;100191.75;;;24.40;84.08
12781;BME280;6454;43.304;24.344;2022-07-06T07:17:00;100193.47;;;24.51;82.63
12781;BME280;6454;43.304;24.344;2022-07-06T07:19:26;100171.13;;;24.37;81.34
12781;BME280;6454;43.304;24.344;2022-07-06T07:21:53;100202.19;;;24.50;81.35
12781;BME280;6454;43.304;24.344;2022-07-06T07:24:20;100200.97;;;24.47;82.05
12781;BME280;6454;43.304;24.344;2022-07-06T07:26:47;100198.31;;;24.58;81.89
12781;BME280;6454;43.304;24.344;2022-07-06T07:29:14;100201.56;;;24.67;81.82
12781;BME280;6454;43.304;24.344;2022-07-06T07:31:41;100205.19;;;24.71;79.34
12781;BME280;6454;43.304;24.344;2022-07-06T07:34:09;100205.16;;;24.67;77.99
12781;BME280;6454;43.304;24.344;2022-07-06T07:36:36;100207.19;;;24.74;76.72
12781;BME280;6454;43.304;24.344;2022-07-06T07:39:03;100206.13;;;24.82;76.39
12781;BME280;6454;43.304;24.344;2022-07-06T07:41:30;100205.63;;;24.76;75.29
12781;BME280;6454;43.304;24.344;2022-07-06T07:43:57;100201.91;;;24.62;76.25
12781;BME280;6454;43.304;24.344;2022-07-06T07:46:24;100207.81;;;24.57;75.47
12781;BME280;6454;43.304;24.344;2022-07-06T07:48:51;100203.41;;;24.56;73.83
12781;BME280;6454;43.304;24.344;2022-07-06T07:51:19;100202.34;;;24.64;76.00
12781;BME280;6454;43.304;24.344;2022-07-06T07:53:46;100195.56;;;24.61;75.63
12781;BME280;6454;43.304;24.344;2022-07-06T07:56:13;100195.28;;;24.70;75.79
12781;BME280;6454;43.304;24.344;2022-07-06T07:58:40;100207.19;;;24.74;78.00
12781;BME280;6454;43.304;24.344;2022-07-06T08:01:06;100174.53;;;24.57;76.35
12781;BME280;6454;43.304;24.344;2022-07-06T08:03:33;100181.63;;;24.54;76.93
12781;BME280;6454;43.304;24.344;2022-07-06T08:06:00;100203.22;;;24.71;76.80
12781;BME280;6454;43.304;24.344;2022-07-06T08:08:28;100175.31;;;24.57;76.25
12781;BME280;6454;43.304;24.344;2022-07-06T08:10:55;100204.50;;;24.77;74.49
12781;BME280;6454;43.304;24.344;2022-07-06T08:13:22;100196.66;;;24.83;75.78
12781;BME280;6454;43.304;24.344;2022-07-06T08:15:49;100200.69;;;24.92;75.79
12781;BME280;6454;43.304;24.344;2022-07-06T08:18:16;100128.97;;;24.58;73.88
12781;BME280;6454;43.304;24.344;2022-07-06T08:20:43;100206.91;;;25.19;72.98
12781;BME280;6454;43.304;24.344;2022-07-06T08:23:09;100195.13;;;25.33;72.12
12781;BME280;6454;43.304;24.344;2022-07-06T08:25:38;100201.19;;;25.45;71.65
12781;BME280;6454;43.304;24.344;2022-07-06T08:28:04;100207.59;;;25.49;72.14
12781;BME280;6454;43.304;24.344;2022-07-06T08:30:31;100197.28;;;25.53;72.80
12781;BME280;6454;43.304;24.344;2022-07-06T08:33:00;100196.13;;;25.58;70.21
12781;BME280;6454;43.304;24.344;2022-07-06T08:35:27;100193.44;;;25.69;70.15
12781;BME280;6454;43.304;24.344;2022-07-06T08:37:54;100189.16;;;25.85;68.04
12781;BME280;6454;43.304;24.344;2022-07-06T08:40:21;100199.59;;;26.06;69.80
12781;BME280;6454;43.304;24.344;2022-07-06T08:42:53;100200.09;;;26.15;66.18
12781;BME280;6454;43.304;24.344;2022-07-06T08:45:21;100188.59;;;26.20;66.19
12781;BME280;6454;43.304;24.344;2022-07-06T08:47:49;100188.25;;;26.36;67.23
12781;BME280;6454;43.304;24.344;2022-07-06T08:50:16;100189.53;;;26.52;66.68
12781;BME280;6454;43.304;24.344;2022-07-06T08:52:47;100183.97;;;26.59;64.00
12781;BME280;6454;43.304;24.344;2022-07-06T08:55:14;100203.03;;;26.54;63.99
12781;BME280;6454;43.304;24.344;2022-07-06T08:57:41;100203.38;;;26.42;63.74
12781;BME280;6454;43.304;24.344;2022-07-06T09:00:11;100197.44;;;26.50;64.92
12781;BME280;6454;43.304;24.344;2022-07-06T09:02:40;100192.63;;;26.37;64.37
12781;BME280;6454;43.304;24.344;2022-07-06T09:05:09;100185.91;;;26.41;66.02
12781;BME280;6454;43.304;24.344;2022-07-06T09:07:38;100175.16;;;26.36;66.19
12781;BME280;6454;43.304;24.344;2022-07-06T09:10:08;100201.09;;;26.72;65.97
12781;BME280;6454;43.304;24.344;2022-07-06T09:12:35;100187.22;;;26.82;64.73
12781;BME280;6454;43.304;24.344;2022-07-06T09:15:02;100188.41;;;26.85;63.52
12781;BME280;6454;43.304;24.344;2022-07-06T09:17:31;100197.56;;;26.85;66.16
12781;BME280;6454;43.304;24.344;2022-07-06T09:19:58;100201.97;;;26.87;63.28
12781;BME280;6454;43.304;24.344;2022-07-06T09:22:26;100199.88;;;26.66;63.87
12781;BME280;6454;43.304;24.344;2022-07-06T09:24:55;100197.09;;;26.66;63.79
12781;BME280;6454;43.304;24.344;2022-07-06T09:27:27;100193.06;;;26.53;64.69
12781;BME280;6454;43.304;24.344;2022-07-06T09:29:54;100194.25;;;26.48;64.51
12781;BME280;6454;43.304;24.344;2022-07-06T09:32:21;100200.66;;;26.52;64.23
12781;BME280;6454;43.304;24.344;2022-07-06T09:34:49;100185.50;;;26.39;65.78
12781;BME280;6454;43.304;24.344;2022-07-06T09:37:16;100190.22;;;26.35;64.70
12781;BME280;6454;43.304;24.344;2022-07-06T09:39:43;100194.22;;;26.38;65.58
12781;BME280;6454;43.304;24.344;2022-07-06T09:42:11;100195.41;;;26.40;65.71
12781;BME280;6454;43.304;24.344;2022-07-06T09:44:40;100185.88;;;26.34;65.02
12781;BME280;6454;43.304;24.344;2022-07-06T09:47:08;100188.28;;;26.39;65.07
12781;BME280;6454;43.304;24.344;2022-07-06T09:49:35;100187.50;;;26.46;64.96
12781;BME280;6454;43.304;24.344;2022-07-06T09:52:06;100178.78;;;26.54;64.67
12781;BME280;6454;43.304;24.344;2022-07-06T09:54:33;100180.81;;;26.64;64.42
12781;BME280;6454;43.304;24.344;2022-07-06T09:57:01;100173.28;;;26.72;64.22
12781;BME280;6454;43.304;24.344;2022-07-06T09:59:30;100177.31;;;26.89;63.29
12781;BME280;6454;43.304;24.344;2022-07-06T10:01:59;100174.13;;;26.79;63.27
12781;BME280;6454;43.304;24.344;2022-07-06T10:04:27;100171.34;;;26.79;63.94
12781;BME280;6454;43.304;24.344;2022-07-06T10:06:55;100171.72;;;26.85;62.71
12781;BME280;6454;43.304;24.344;2022-07-06T10:09:25;100145.06;;;26.70;62.03
12781;BME280;6454;43.304;24.344;2022-07-06T10:11:54;100168.16;;;26.92;61.72
12781;BME280;6454;43.304;24.344;2022-07-06T10:14:22;100166.59;;;26.94;61.93
12781;BME280;6454;43.304;24.344;2022-07-06T10:16:50;100173.72;;;26.95;61.76
12781;BME280;6454;43.304;24.344;2022-07-06T10:19:19;100171.38;;;26.97;60.25
12781;BME280;6454;43.304;24.344;2022-07-06T10:21:46;100160.22;;;26.87;60.50
12781;BME280;6454;43.304;24.344;2022-07-06T10:24:14;100157.44;;;26.87;61.81
12781;BME280;6454;43.304;24.344;2022-07-06T10:26:43;100155.44;;;26.87;61.49
12781;BME280;6454;43.304;24.344;2022-07-06T10:29:10;100152.25;;;26.81;62.07
12781;BME280;6454;43.304;24.344;2022-07-06T10:31:40;100157.84;;;26.92;60.91
12781;BME280;6454;43.304;24.344;2022-07-06T10:34:10;100144.31;;;26.94;61.32
12781;BME280;6454;43.304;24.344;2022-07-06T10:36:38;100151.84;;;27.08;61.91
12781;BME280;6454;43.304;24.344;2022-07-06T10:39:05;100151.47;;;27.06;61.34
12781;BME280;6454;43.304;24.344;2022-07-06T10:41:48;100144.31;;;27.05;59.83
12781;BME280;6454;43.304;24.344;2022-07-06T10:44:16;100147.09;;;26.87;60.73
12781;BME280;6454;43.304;24.344;2022-07-06T10:46:50;100145.03;;;26.73;60.62
12781;BME280;6454;43.304;24.344;2022-07-06T10:49:18;100148.22;;;26.72;61.01
12781;BME280;6454;43.304;24.344;2022-07-06T10:51:46;100144.66;;;26.71;61.94
12781;BME280;6454;43.304;24.344;2022-07-06T10:54:15;100149.00;;;26.65;63.12
12781;BME280;6454;43.304;24.344;2022-07-06T10:56:44;100151.38;;;26.70;62.62
12781;BME280;6454;43.304;24.344;2022-07-06T10:59:13;100129.91;;;26.60;61.35
12781;BME280;6454;43.304;24.344;2022-07-06T11:01:41;100132.69;;;26.60;60.15
12781;BME280;6454;43.304;24.344;2022-07-06T11:04:32;100144.28;;;26.91;61.85
12781;BME280;6454;43.304;24.344;2022-07-06T11:07:07;100162.59;;;27.13;61.13
12781;BME280;6454;43.304;24.344;2022-07-06T11:09:35;100151.06;;;27.11;58.71
12781;BME280;6454;43.304;24.344;2022-07-06T11:12:12;100157.44;;;27.11;59.09
12781;BME280;6454;43.304;24.344;2022-07-06T11:14:39;100156.63;;;27.18;59.63
12781;BME280;6454;43.304;24.344;2022-07-06T11:17:09;100150.66;;;27.23;59.11
12781;BME280;6454;43.304;24.344;2022-07-06T11:19:38;100069.53;;;26.85;59.41
12781;BME280;6454;43.304;24.344;2022-07-06T11:22:15;100155.81;;;27.35;59.05
12781;BME280;6454;43.304;24.344;2022-07-06T11:24:42;100153.06;;;27.31;57.36
12781;BME280;6454;43.304;24.344;2022-07-06T11:27:10;100153.88;;;27.32;58.17
12781;BME280;6454;43.304;24.344;2022-07-06T11:29:36;100154.25;;;27.27;58.12
12781;BME280;6454;43.304;24.344;2022-07-06T11:32:06;100141.13;;;27.24;57.96
12781;BME280;6454;43.304;24.344;2022-07-06T11:34:36;100144.28;;;27.22;57.83
12781;BME280;6454;43.304;24.344;2022-07-06T11:37:07;100147.88;;;27.30;57.99
12781;BME280;6454;43.304;24.344;2022-07-06T11:39:35;100147.47;;;27.28;57.40
12781;BME280;6454;43.304;24.344;2022-07-06T11:42:05;100153.06;;;27.17;59.16
12781;BME280;6454;43.304;24.344;2022-07-06T11:44:33;100153.06;;;27.03;59.01
12781;BME280;6454;43.304;24.344;2022-07-06T11:47:00;100138.34;;;27.03;57.64
12781;BME280;6454;43.304;24.344;2022-07-06T11:49:29;100146.72;;;27.10;58.70
12781;BME280;6454;43.304;24.344;2022-07-06T11:51:56;100143.50;;;27.18;58.92
12781;BME280;6454;43.304;24.344;2022-07-06T11:54:25;100135.53;;;27.27;58.44
12781;BME280;6454;43.304;24.344;2022-07-06T11:56:54;100136.75;;;27.26;57.64
12781;BME280;6454;43.304;24.344;2022-07-06T11:59:22;100135.94;;;27.26;57.74
12781;BME280;6454;43.304;24.344;2022-07-06T12:01:49;100135.16;;;27.36;57.51
12781;BME280;6454;43.304;24.344;2022-07-06T12:04:17;100137.16;;;27.42;56.69
12781;BME280;6454;43.304;24.344;2022-07-06T12:06:44;100129.59;;;27.54;57.10
12781;BME280;6454;43.304;24.344;2022-07-06T12:09:11;100126.75;;;27.71;56.13
12781;BME280;6454;43.304;24.344;2022-07-06T12:11:44;100123.94;;;27.78;54.23
12781;BME280;6454;43.304;24.344;2022-07-06T12:14:16;100093.75;;;27.59;55.07
12781;BME280;6454;43.304;24.344;2022-07-06T12:16:44;100115.56;;;27.85;55.68
12781;BME280;6454;43.304;24.344;2022-07-06T12:19:11;100116.34;;;27.89;54.43
12781;BME280;6454;43.304;24.344;2022-07-06T12:21:43;100109.13;;;28.02;54.83
12781;BME280;6454;43.304;24.344;2022-07-06T12:24:17;100109.13;;;28.06;53.72
12781;BME280;6454;43.304;24.344;2022-07-06T12:26:46;100098.41;;;27.90;53.51
12781;BME280;6454;43.304;24.344;2022-07-06T12:29:13;100099.22;;;28.01;53.98
12781;BME280;6454;43.304;24.344;2022-07-06T12:31:42;100103.94;;;28.08;55.73
12781;BME280;6454;43.304;24.344;2022-07-06T12:34:13;100098.38;;;28.12;53.75
12781;BME280;6454;43.304;24.344;2022-07-06T12:36:45;100103.19;;;28.04;53.42
12781;BME280;6454;43.304;24.344;2022-07-06T12:39:13;100092.41;;;27.99;54.33
12781;BME280;6454;43.304;24.344;2022-07-06T12:41:46;100102.78;;;28.02;54.85
12781;BME280;6454;43.304;24.344;2022-07-06T12:44:15;100090.03;;;28.04;53.42
12781;BME280;6454;43.304;24.344;2022-07-06T12:46:42;100084.47;;;27.94;53.37
12781;BME280;6454;43.304;24.344;2022-07-06T12:49:14;100086.47;;;27.90;54.98
12781;BME280;6454;43.304;24.344;2022-07-06T12:51:52;100090.84;;;27.87;54.57